createdAt,value
2022-08-07T00:01:43.951Z,94.35
2022-08-07T00:04:06.331Z,95.72
2022-08-07T00:06:37.470Z,95.71
2022-08-07T00:09:17.241Z,95.22
2022-08-07T00:11:56.152Z,95.98
2022-08-07T00:14:31.465Z,96.26
2022-08-07T00:17:01.611Z,96.77
2022-08-07T00:20:00.426Z,95.50
2022-08-07T00:22:24.428Z,96.83
2022-08-07T00:25:05.295Z,95.81
2022-08-07T00:27:51.865Z,94.83
2022-08-07T00:30:27.049Z,95.70
2022-08-07T00:32:57.021Z,95.58
2022-08-07T00:35:25.432Z,96.56
2022-08-07T00:37:54.903Z,95.83
2022-08-07T00:40:36.594Z,94.82
2022-08-07T00:43:09.899Z,95.31
2022-08-07T00:45:40.344Z,95.78
2022-08-07T00:48:11.050Z,96.57
2022-08-07T00:50:51.292Z,96.37
2022-08-07T00:53:20.640Z,97.38
2022-08-07T00:56:03.181Z,97.43
2022-08-07T00:58:32.592Z,98.58
2022-08-07T01:01:02.490Z,98.36
2022-08-07T01:03:54.835Z,98.63
2022-08-07T01:06:20.205Z,98.94
2022-08-07T01:08:53.676Z,98.77
2022-08-07T01:12:09.452Z,98.77
2022-08-07T01:14:12.243Z,98.84
2022-08-07T01:16:47.311Z,100.00
2022-08-07T01:19:19.744Z,99.30
2022-08-07T01:21:55.316Z,99.39
2022-08-07T01:24:30.671Z,99.03
2022-08-07T01:27:01.120Z,99.12
2022-08-07T01:29:33.796Z,99.14
2022-08-07T01:32:12.267Z,99.14
2022-08-07T01:34:47.392Z,99.47
2022-08-07T01:37:20.098Z,99.39
2022-08-07T01:39:51.104Z,98.93
2022-08-07T01:42:39.624Z,99.53
2022-08-07T01:45:22.900Z,99.94
2022-08-07T01:48:20.924Z,98.85
2022-08-07T01:50:50.342Z,99.60
2022-08-07T01:54:09.554Z,99.99
2022-08-07T01:56:15.368Z,99.33
2022-08-07T01:58:50.958Z,99.12
2022-08-07T02:02:00.170Z,100.00
2022-08-07T02:04:26.666Z,99.85
2022-08-07T02:07:02.160Z,99.80
2022-08-07T02:09:54.709Z,100.00
2022-08-07T02:12:29.310Z,99.94
2022-08-07T02:15:01.600Z,100.00
2022-08-07T02:17:49.802Z,100.00
2022-08-07T02:20:23.549Z,100.00
2022-08-07T02:22:59.678Z,100.00
2022-08-07T02:26:31.905Z,100.00
2022-08-07T02:28:24.673Z,100.00
2022-08-07T02:30:56.856Z,100.00
2022-08-07T02:33:42.166Z,100.00
2022-08-07T02:36:29.081Z,100.00
2022-08-07T02:39:16.747Z,100.00
2022-08-07T02:41:56.801Z,100.00
2022-08-07T02:44:34.519Z,100.00
2022-08-07T02:47:06.870Z,100.00
2022-08-07T02:49:57.753Z,100.00
2022-08-07T02:52:30.958Z,100.00
2022-08-07T02:55:04.083Z,99.84
2022-08-07T02:57:37.706Z,100.00
2022-08-07T03:00:11.080Z,100.00
2022-08-07T03:02:54.802Z,100.00
2022-08-07T03:05:25.332Z,100.00
2022-08-07T03:08:07.795Z,100.00
2022-08-07T03:10:46.721Z,100.00
2022-08-07T03:13:20.303Z,100.00
2022-08-07T03:15:56.299Z,100.00
2022-08-07T03:18:34.965Z,100.00
2022-08-07T03:21:08.889Z,100.00
2022-08-07T03:24:20.399Z,100.00
2022-08-07T03:26:34.888Z,100.00
2022-08-07T03:29:11.215Z,100.00
2022-08-07T03:31:46.585Z,100.00
2022-08-07T03:34:22.168Z,100.00
2022-08-07T03:36:53.968Z,100.00
2022-08-07T03:40:00.002Z,100.00
2022-08-07T03:42:14.296Z,100.00
2022-08-07T03:44:53.256Z,100.00
2022-08-07T03:47:29.604Z,100.00
2022-08-07T03:50:17.575Z,100.00
2022-08-07T03:52:53.025Z,100.00
2022-08-07T03:55:22.185Z,100.00
2022-08-07T03:58:35.019Z,100.00
2022-08-07T04:00:46.312Z,100.00
2022-08-07T04:03:22.576Z,100.00
2022-08-07T04:05:53.484Z,100.00
2022-08-07T04:08:28.111Z,100.00
2022-08-07T04:12:20.749Z,100.00
2022-08-07T04:14:10.348Z,100.00
2022-08-07T04:16:38.367Z,100.00
2022-08-07T04:19:12.828Z,100.00
2022-08-07T04:22:05.360Z,100.00
2022-08-07T04:24:42.046Z,100.00
2022-08-07T04:27:15.187Z,100.00
2022-08-07T04:30:02.010Z,98.61
2022-08-07T04:32:58.429Z,93.04
2022-08-07T04:35:35.427Z,87.98
2022-08-07T04:38:11.542Z,84.86
2022-08-07T04:40:52.418Z,82.12
2022-08-07T04:44:10.216Z,82.48
2022-08-07T04:46:29.448Z,81.72
2022-08-07T04:49:18.310Z,80.08
2022-08-07T04:52:04.575Z,77.56
2022-08-07T04:54:37.705Z,78.21
2022-08-07T04:58:12.161Z,79.26
2022-08-07T05:00:18.967Z,79.87
2022-08-07T05:03:31.196Z,84.59
2022-08-07T05:06:02.219Z,85.62
2022-08-07T05:09:01.562Z,85.44
2022-08-07T05:11:57.422Z,84.48
2022-08-07T05:14:52.380Z,84.25
2022-08-07T05:18:00.648Z,86.27
2022-08-07T05:20:14.707Z,85.93
2022-08-07T05:22:49.059Z,84.22
2022-08-07T05:25:25.884Z,83.51
2022-08-07T05:28:20.317Z,84.69
2022-08-07T05:30:55.291Z,85.17
2022-08-07T05:33:29.808Z,85.88
2022-08-07T05:36:00.232Z,88.38
2022-08-07T05:38:59.824Z,92.17
2022-08-07T05:41:21.976Z,93.46
2022-08-07T05:44:08.136Z,94.96
2022-08-07T05:46:44.119Z,96.51
2022-08-07T05:49:14.431Z,94.23
2022-08-07T05:51:48.120Z,95.31
2022-08-07T05:54:44.151Z,94.55
2022-08-07T05:57:11.793Z,91.40
2022-08-07T05:59:55.637Z,89.88
2022-08-07T06:02:30.713Z,91.27
2022-08-07T06:05:06.042Z,93.31
2022-08-07T06:08:13.406Z,92.52
2022-08-07T06:10:27.509Z,91.99
2022-08-07T06:12:55.880Z,92.03
2022-08-07T06:15:39.419Z,92.39
2022-08-07T06:18:14.498Z,90.98
2022-08-07T06:20:51.150Z,91.22
2022-08-07T06:24:38.584Z,88.53
2022-08-07T06:26:27.431Z,89.66
2022-08-07T06:29:01.217Z,89.50
2022-08-07T06:31:38.364Z,88.31
2022-08-07T06:34:15.256Z,88.94
2022-08-07T06:36:47.975Z,85.34
2022-08-07T06:40:16.390Z,83.14
2022-08-07T06:42:17.591Z,81.00
2022-08-07T06:45:07.777Z,80.00
2022-08-07T06:47:48.270Z,79.84
2022-08-07T06:50:30.447Z,79.37
2022-08-07T06:53:04.219Z,82.55
2022-08-07T06:55:48.078Z,79.81
2022-08-07T06:58:27.564Z,79.41
2022-08-07T07:01:04.186Z,77.58
2022-08-07T07:03:48.686Z,77.38
2022-08-07T07:06:26.119Z,77.08
2022-08-07T07:08:56.794Z,74.49
2022-08-07T07:12:07.747Z,73.80
2022-08-07T07:14:21.783Z,73.98
2022-08-07T07:16:54.414Z,74.51
2022-08-07T07:19:56.513Z,75.42
2022-08-07T07:22:36.413Z,74.52
2022-08-07T07:26:30.773Z,70.19
2022-08-07T07:28:03.026Z,72.82
2022-08-07T07:30:40.145Z,70.45
2022-08-07T07:33:12.195Z,68.23
2022-08-07T07:36:03.912Z,67.56
2022-08-07T07:38:35.000Z,67.31
2022-08-07T07:41:08.849Z,67.76
2022-08-07T07:44:14.901Z,65.12
2022-08-07T07:46:38.539Z,65.60
2022-08-07T07:50:35.099Z,65.01
2022-08-07T07:52:13.913Z,62.82
2022-08-07T07:54:50.544Z,61.93
2022-08-07T07:57:29.065Z,65.36
2022-08-07T08:00:12.508Z,65.35
2022-08-07T08:03:04.586Z,60.43
2022-08-07T08:05:53.714Z,61.68
2022-08-07T08:08:34.447Z,59.28
2022-08-07T08:11:08.661Z,60.44
2022-08-07T08:13:53.461Z,62.69
2022-08-07T08:16:31.010Z,59.26
2022-08-07T08:19:09.659Z,57.57
2022-08-07T08:22:07.810Z,56.33
2022-08-07T08:25:04.781Z,56.46
2022-08-07T08:27:56.770Z,59.63
2022-08-07T08:30:28.971Z,55.25
2022-08-07T08:33:01.453Z,57.48
2022-08-07T08:35:39.515Z,53.86
2022-08-07T08:38:17.940Z,51.16
2022-08-07T08:40:54.751Z,51.75
2022-08-07T08:43:42.820Z,47.40
2022-08-07T08:46:29.903Z,45.89
2022-08-07T08:49:08.266Z,49.57
2022-08-07T08:52:13.338Z,49.09
2022-08-07T08:54:42.985Z,44.50
2022-08-07T08:57:21.495Z,38.80
2022-08-07T08:59:58.236Z,38.43
2022-08-07T09:02:38.662Z,38.53
2022-08-07T09:05:32.070Z,37.96
2022-08-07T09:08:24.313Z,36.59
2022-08-07T09:11:05.636Z,38.37
2022-08-07T09:13:44.410Z,36.89
2022-08-07T09:16:22.758Z,36.58
2022-08-07T09:19:51.821Z,39.99
2022-08-07T09:24:28.762Z,36.17
2022-08-07T09:25:17.269Z,39.45
2022-08-07T09:28:01.157Z,40.79
2022-08-07T09:30:44.177Z,37.02
2022-08-07T09:33:52.552Z,38.28
2022-08-07T09:36:31.177Z,37.51
2022-08-07T09:39:54.148Z,39.70
2022-08-07T09:42:22.930Z,39.26
2022-08-07T09:47:24.493Z,41.94
2022-08-07T09:48:12.033Z,39.34
2022-08-07T09:50:55.467Z,40.05
2022-08-07T09:53:25.785Z,37.28
2022-08-07T09:56:19.675Z,35.66
2022-08-07T09:59:21.587Z,37.57
2022-08-07T10:02:10.030Z,37.32
2022-08-07T10:05:00.915Z,36.67
2022-08-07T10:08:05.271Z,38.79
2022-08-07T10:11:59.437Z,38.41
2022-08-07T10:14:01.654Z,38.07
2022-08-07T10:17:14.189Z,38.31
2022-08-07T10:20:00.512Z,37.36
2022-08-07T10:22:56.220Z,37.16
2022-08-07T10:25:43.052Z,38.29
2022-08-07T10:28:38.390Z,37.13
2022-08-07T10:31:22.038Z,37.81
2022-08-07T10:34:17.878Z,36.58
2022-08-07T10:37:12.434Z,36.15
2022-08-07T10:39:57.531Z,35.55
2022-08-07T10:42:38.429Z,34.59
2022-08-07T10:45:44.996Z,34.55
2022-08-07T10:48:34.615Z,35.03
2022-08-07T10:51:16.810Z,34.66
2022-08-07T10:54:04.209Z,36.59
2022-08-07T10:56:42.338Z,37.75
2022-08-07T10:59:22.083Z,35.85
2022-08-07T11:02:05.457Z,37.66
2022-08-07T11:04:53.899Z,37.26
2022-08-07T11:07:58.388Z,34.49
2022-08-07T11:10:27.544Z,36.88
2022-08-07T11:13:02.493Z,35.75
2022-08-07T11:15:35.911Z,35.70
2022-08-07T11:18:12.581Z,35.66
2022-08-07T11:20:49.519Z,35.39
2022-08-07T11:23:30.616Z,35.88
2022-08-07T11:26:13.335Z,36.94
2022-08-07T11:28:55.140Z,36.95
2022-08-07T11:31:38.395Z,37.64
2022-08-07T11:34:18.103Z,38.58
2022-08-07T11:37:00.430Z,36.99
2022-08-07T11:39:59.780Z,36.79
2022-08-07T11:42:40.078Z,36.10
2022-08-07T11:45:23.763Z,35.96
2022-08-07T11:48:31.565Z,37.43
2022-08-07T11:51:41.157Z,35.48
2022-08-07T11:54:18.528Z,36.54
2022-08-07T11:57:06.852Z,36.27
2022-08-07T12:00:10.041Z,37.10
2022-08-07T12:03:41.735Z,36.50
2022-08-07T12:06:37.057Z,37.25
2022-08-07T12:09:16.469Z,37.05
2022-08-07T12:12:10.576Z,35.28
2022-08-07T12:14:53.887Z,35.83
2022-08-07T12:17:33.578Z,35.24
2022-08-07T12:20:20.070Z,35.58
2022-08-07T12:24:06.153Z,35.62
2022-08-07T12:26:28.595Z,34.84
2022-08-07T12:29:07.410Z,35.08
2022-08-07T12:32:02.018Z,35.19
2022-08-07T12:34:33.195Z,35.56
2022-08-07T12:37:08.744Z,36.62
2022-08-07T12:39:50.723Z,35.09
2022-08-07T12:42:27.497Z,34.64
2022-08-07T12:45:05.716Z,36.63
2022-08-07T12:47:43.943Z,35.04
2022-08-07T12:50:34.184Z,34.33
2022-08-07T12:53:17.799Z,34.70
2022-08-07T12:56:02.504Z,34.04
2022-08-07T12:58:37.561Z,33.79
2022-08-07T13:01:19.772Z,34.91
2022-08-07T13:04:06.431Z,36.37
2022-08-07T13:07:08.096Z,33.63
2022-08-07T13:10:19.561Z,34.52
2022-08-07T13:12:56.059Z,33.37
2022-08-07T13:15:31.630Z,34.38
2022-08-07T13:18:18.465Z,34.53
2022-08-07T13:21:00.911Z,34.55
2022-08-07T13:24:04.144Z,35.41
2022-08-07T13:26:35.673Z,35.04
2022-08-07T13:29:12.931Z,34.97
2022-08-07T13:31:57.917Z,35.04
2022-08-07T13:34:39.352Z,34.50
2022-08-07T13:37:21.611Z,34.88
2022-08-07T13:40:35.413Z,33.99
2022-08-07T13:42:53.769Z,34.41
2022-08-07T13:46:11.379Z,34.61
2022-08-07T13:48:27.752Z,35.01
2022-08-07T13:51:27.412Z,33.88
2022-08-07T13:54:01.651Z,34.78
2022-08-07T13:56:35.357Z,35.01
2022-08-07T13:59:12.755Z,35.57
2022-08-07T14:01:50.987Z,34.15
2022-08-07T14:04:35.766Z,33.84
2022-08-07T14:07:11.326Z,33.59
2022-08-07T14:10:01.422Z,34.51
2022-08-07T14:12:42.021Z,34.59
2022-08-07T14:15:28.224Z,33.44
2022-08-07T14:18:28.000Z,33.54
2022-08-07T14:21:20.601Z,35.75
2022-08-07T14:24:03.928Z,35.17
2022-08-07T14:26:38.994Z,35.48
2022-08-07T14:30:07.314Z,34.93
2022-08-07T14:32:04.804Z,34.39
2022-08-07T14:34:34.811Z,33.95
2022-08-07T14:37:17.622Z,33.42
2022-08-07T14:40:16.211Z,33.12
2022-08-07T14:43:01.263Z,33.79
2022-08-07T14:45:48.691Z,34.78
2022-08-07T14:48:20.242Z,33.84
2022-08-07T14:50:53.205Z,33.37
2022-08-07T14:54:08.877Z,33.45
2022-08-07T14:56:15.409Z,33.51
2022-08-07T14:59:13.958Z,33.08
2022-08-07T15:01:54.333Z,33.01
2022-08-07T15:04:28.848Z,33.86
2022-08-07T15:06:58.267Z,34.68
2022-08-07T15:09:58.181Z,33.99
2022-08-07T15:12:30.451Z,33.67
2022-08-07T15:15:07.729Z,34.38
2022-08-07T15:17:55.546Z,33.61
2022-08-07T15:20:33.656Z,33.28
2022-08-07T15:26:20.924Z,33.81
2022-08-07T15:28:59.639Z,32.36
2022-08-07T15:32:01.554Z,34.10
2022-08-07T15:34:36.255Z,33.88
2022-08-07T15:37:07.117Z,32.84
2022-08-07T15:42:46.487Z,32.98
2022-08-07T15:45:55.731Z,33.67
2022-08-07T15:48:25.817Z,32.56
2022-08-07T15:51:09.021Z,33.21
2022-08-07T15:53:51.805Z,33.58
2022-08-07T15:56:24.645Z,34.02
2022-08-07T15:58:58.042Z,33.21
2022-08-07T16:01:39.378Z,33.32
2022-08-07T16:04:14.639Z,34.08
2022-08-07T16:06:49.600Z,33.10
2022-08-07T16:09:23.422Z,33.32
2022-08-07T16:12:37.938Z,34.07
2022-08-07T16:15:55.146Z,34.12
2022-08-07T16:18:43.450Z,33.46
2022-08-07T16:21:56.884Z,34.24
2022-08-07T16:24:34.924Z,33.41
2022-08-07T16:27:18.235Z,32.92
2022-08-07T16:30:31.435Z,33.80
2022-08-07T16:34:02.249Z,33.41
2022-08-07T16:36:20.129Z,33.37
2022-08-07T16:39:06.058Z,33.56
2022-08-07T16:41:56.036Z,33.49
2022-08-07T16:45:04.045Z,33.60
2022-08-07T16:48:28.699Z,33.32
2022-08-07T16:51:54.560Z,33.67
2022-08-07T16:54:32.695Z,33.45
2022-08-07T16:58:00.751Z,33.91
2022-08-07T17:00:29.895Z,33.85
2022-08-07T17:03:58.435Z,33.65
2022-08-07T17:06:31.435Z,33.83
2022-08-07T17:09:14.321Z,34.44
2022-08-07T17:12:35.611Z,34.80
2022-08-07T17:15:05.350Z,34.38
2022-08-07T17:17:46.390Z,35.01
2022-08-07T17:20:29.896Z,35.05
2022-08-07T17:23:11.400Z,35.61
2022-08-07T17:25:54.593Z,34.88
2022-08-07T17:28:32.529Z,35.79
2022-08-07T17:31:15.690Z,35.60
2022-08-07T17:34:15.025Z,35.80
2022-08-07T17:36:57.476Z,36.38
2022-08-07T17:39:57.903Z,36.19
2022-08-07T17:42:58.479Z,36.89
2022-08-07T17:45:34.170Z,36.11
2022-08-07T17:48:10.352Z,36.51
2022-08-07T17:50:54.379Z,37.11
2022-08-07T17:53:59.486Z,37.79
2022-08-07T17:56:30.080Z,38.23
2022-08-07T17:59:09.803Z,37.96
2022-08-07T18:01:48.545Z,38.53
2022-08-07T18:04:31.221Z,38.93
2022-08-07T18:07:23.750Z,38.13
2022-08-07T18:10:07.254Z,38.63
2022-08-07T18:13:09.753Z,38.59
2022-08-07T18:15:51.819Z,39.51
2022-08-07T18:18:45.046Z,39.34
2022-08-07T18:21:38.365Z,39.61
2022-08-07T18:24:32.973Z,40.67
2022-08-07T18:27:17.432Z,42.16
2022-08-07T18:30:31.316Z,43.04
2022-08-07T18:33:39.128Z,44.12
2022-08-07T18:36:33.378Z,44.67
2022-08-07T18:40:08.770Z,44.52
2022-08-07T18:42:17.428Z,45.02
2022-08-07T18:48:01.283Z,44.89
2022-08-07T18:50:54.379Z,45.21
2022-08-07T18:53:39.827Z,45.82
2022-08-07T18:56:16.256Z,46.87
2022-08-07T18:59:00.789Z,48.52
2022-08-07T19:02:17.344Z,48.95
2022-08-07T19:04:59.439Z,50.66
2022-08-07T19:07:34.852Z,51.21
2022-08-07T19:10:12.144Z,50.91
2022-08-07T19:12:57.844Z,50.40
2022-08-07T19:16:04.956Z,50.06
2022-08-07T19:18:45.159Z,50.66
2022-08-07T19:21:44.157Z,50.49
2022-08-07T19:24:30.845Z,50.83
2022-08-07T19:28:58.313Z,51.53
2022-08-07T19:31:06.200Z,53.26
2022-08-07T19:32:46.961Z,54.63
2022-08-07T19:35:22.372Z,55.88
2022-08-07T19:37:58.386Z,56.68
2022-08-07T19:40:31.324Z,58.06
2022-08-07T19:43:08.551Z,58.04
2022-08-07T19:46:06.282Z,58.39
2022-08-07T19:48:42.664Z,59.88
2022-08-07T19:51:20.193Z,58.75
2022-08-07T19:54:29.603Z,59.84
2022-08-07T19:57:56.852Z,60.27
2022-08-07T19:59:50.517Z,60.42
2022-08-07T20:02:30.466Z,60.92
2022-08-07T20:05:03.203Z,61.07
2022-08-07T20:07:46.182Z,62.04
2022-08-07T20:10:36.999Z,62.25
2022-08-07T20:13:22.861Z,63.67
2022-08-07T20:15:55.250Z,63.48
2022-08-07T20:18:33.680Z,63.83
2022-08-07T20:21:20.888Z,63.67
2022-08-07T20:23:55.002Z,64.56
2022-08-07T20:26:44.892Z,65.32
2022-08-07T20:29:47.847Z,65.20
2022-08-07T20:32:11.456Z,66.16
2022-08-07T20:34:55.560Z,67.28
2022-08-07T20:37:33.908Z,65.78
2022-08-07T20:40:32.591Z,66.64
2022-08-07T20:42:58.796Z,66.12
2022-08-07T20:45:33.640Z,66.79
2022-08-07T20:48:30.337Z,66.15
2022-08-07T20:51:00.718Z,67.45
2022-08-07T20:54:03.946Z,68.20
2022-08-07T20:56:26.380Z,69.45
2022-08-07T20:59:02.420Z,69.25
2022-08-07T21:01:45.216Z,70.28
2022-08-07T21:04:26.887Z,70.75
2022-08-07T21:06:59.249Z,71.44
2022-08-07T21:09:51.904Z,71.65
2022-08-07T21:12:28.935Z,72.11
2022-08-07T21:15:08.255Z,71.79
2022-08-07T21:18:17.555Z,72.39
2022-08-07T21:20:33.166Z,72.94
2022-08-07T21:23:08.120Z,73.70
2022-08-07T21:25:56.968Z,74.80
2022-08-07T21:28:48.029Z,74.98
2022-08-07T21:31:49.398Z,73.07
2022-08-07T21:34:31.857Z,71.57
2022-08-07T21:37:04.195Z,72.12
2022-08-07T21:39:45.110Z,72.32
2022-08-07T21:42:46.226Z,73.02
2022-08-07T21:46:07.513Z,74.05
2022-08-07T21:48:27.747Z,73.67
2022-08-07T21:51:19.915Z,73.49
2022-08-07T21:53:54.694Z,74.04
2022-08-07T21:56:47.844Z,73.93
2022-08-07T22:00:02.622Z,74.22
2022-08-07T22:02:29.650Z,74.68
2022-08-07T22:05:04.074Z,75.27
2022-08-07T22:07:57.768Z,76.27
2022-08-07T22:10:28.998Z,76.42
2022-08-07T22:13:05.709Z,76.96
2022-08-07T22:16:39.489Z,76.69
2022-08-07T22:18:40.864Z,77.68
2022-08-07T22:21:19.270Z,77.82
2022-08-07T22:23:53.923Z,78.08
2022-08-07T22:26:26.813Z,75.87
2022-08-07T22:29:04.932Z,75.89
2022-08-07T22:32:00.338Z,75.32
2022-08-07T22:34:53.173Z,76.08
2022-08-07T22:38:02.879Z,76.68
2022-08-07T22:40:28.181Z,76.96
2022-08-07T22:43:03.807Z,77.97
2022-08-07T22:46:21.748Z,77.55
2022-08-07T22:49:07.766Z,78.27
2022-08-07T22:52:00.603Z,78.84
2022-08-07T22:54:40.332Z,79.69
2022-08-07T22:57:43.053Z,79.28
2022-08-07T23:00:18.356Z,79.69
2022-08-07T23:03:02.071Z,80.77
2022-08-07T23:06:09.290Z,81.23
2022-08-07T23:08:51.576Z,80.96
2022-08-07T23:11:46.030Z,81.49
2022-08-07T23:14:25.945Z,81.41
2022-08-07T23:17:22.157Z,81.69
2022-08-07T23:20:16.526Z,81.70
2022-08-07T23:23:01.024Z,81.71
2022-08-07T23:25:52.775Z,82.47
2022-08-07T23:28:44.288Z,82.58
2022-08-07T23:32:49.033Z,84.33
2022-08-07T23:34:54.095Z,84.61
2022-08-07T23:38:00.402Z,84.20
2022-08-07T23:40:37.142Z,84.26
2022-08-07T23:43:37.871Z,84.74
2022-08-07T23:46:29.394Z,85.13
2022-08-07T23:49:20.515Z,85.16
2022-08-07T23:53:01.649Z,84.94
2022-08-07T23:54:54.216Z,83.28
2022-08-07T23:57:29.406Z,83.67
